createdAt,value
2018-10-11T00:00:31.347Z,37.30
2018-10-11T00:02:59.472Z,36.80
2018-10-11T00:05:27.595Z,35.77
2018-10-11T00:07:55.719Z,39.23
2018-10-11T00:10:23.845Z,45.27
2018-10-11T00:12:52.029Z,36.50
2018-10-11T00:15:20.151Z,37.30
2018-10-11T00:17:48.265Z,47.93
2018-10-11T00:20:16.423Z,42.03
2018-10-11T00:22:44.539Z,42.43
2018-10-11T00:25:12.654Z,40.43
2018-10-11T00:27:40.779Z,40.87
2018-10-11T00:30:09.003Z,47.33
2018-10-11T00:32:37.286Z,52.43
2018-10-11T00:35:05.523Z,53.70
2018-10-11T00:37:33.741Z,42.27
2018-10-11T00:40:01.866Z,44.33
2018-10-11T00:42:29.982Z,48.90
2018-10-11T00:44:58.095Z,60.53
2018-10-11T00:47:26.223Z,56.73
2018-10-11T00:49:54.354Z,51.70
2018-10-11T00:52:22.621Z,46.00
2018-10-11T00:54:50.739Z,46.03
2018-10-11T00:57:18.827Z,51.97
2018-10-11T00:59:46.944Z,44.53
2018-10-11T01:02:15.067Z,46.57
2018-10-11T01:04:43.191Z,42.37
2018-10-11T01:07:11.323Z,43.10
2018-10-11T01:09:39.442Z,41.33
2018-10-11T01:12:07.745Z,39.53
2018-10-11T01:14:35.863Z,42.30
2018-10-11T01:17:04.019Z,40.57
2018-10-11T01:19:32.175Z,43.70
2018-10-11T01:22:00.262Z,42.10
2018-10-11T01:24:28.376Z,40.30
2018-10-11T01:26:56.529Z,47.67
2018-10-11T01:29:24.651Z,76.57
2018-10-11T01:31:52.775Z,55.00
2018-10-11T01:34:20.856Z,61.43
2018-10-11T01:36:48.995Z,56.93
2018-10-11T01:39:17.113Z,60.23
2018-10-11T01:41:45.227Z,51.63
2018-10-11T01:44:13.434Z,49.67
2018-10-11T01:46:41.555Z,50.43
2018-10-11T01:49:09.677Z,55.37
2018-10-11T01:51:37.795Z,41.80
2018-10-11T01:54:06.046Z,45.83
2018-10-11T01:56:34.222Z,44.37
2018-10-11T01:59:02.284Z,46.83
2018-10-11T02:01:30.407Z,48.40
2018-10-11T02:03:58.532Z,52.70
2018-10-11T02:06:26.900Z,55.00
2018-10-11T02:08:55.070Z,54.67
2018-10-11T02:11:23.189Z,50.33
2018-10-11T02:13:51.307Z,48.03
2018-10-11T02:16:19.425Z,49.47
2018-10-11T02:18:47.547Z,47.57
2018-10-11T02:21:15.650Z,46.63
2018-10-11T02:23:43.765Z,52.13
2018-10-11T02:26:11.883Z,54.30
2018-10-11T02:28:40.021Z,48.93
2018-10-11T02:31:08.375Z,51.77
2018-10-11T02:33:36.462Z,49.47
2018-10-11T02:36:04.563Z,53.43
2018-10-11T02:41:00.774Z,65.57
2018-10-11T02:43:28.880Z,99.97
2018-10-11T02:45:56.993Z,72.33
2018-10-11T02:48:25.096Z,59.83
2018-10-11T02:50:53.203Z,70.03
2018-10-11T02:53:21.323Z,64.87
2018-10-11T02:55:49.438Z,82.87
2018-10-11T02:58:29.062Z,94.80
2018-10-11T03:00:57.175Z,69.40
2018-10-11T03:03:27.324Z,46.43
2018-10-11T03:05:55.442Z,47.23
2018-10-11T03:08:25.509Z,42.37
2018-10-11T03:10:53.636Z,44.80
2018-10-11T03:13:21.756Z,43.37
2018-10-11T03:15:49.885Z,68.87
2018-10-11T03:18:18.176Z,65.67
2018-10-11T03:20:46.294Z,48.00
2018-10-11T03:23:14.970Z,56.90
2018-10-11T03:25:44.277Z,59.00
2018-10-11T03:28:13.997Z,48.60
2018-10-11T03:30:42.571Z,50.73
2018-10-11T03:33:11.352Z,51.17
2018-10-11T03:35:39.947Z,46.47
2018-10-11T03:38:08.063Z,47.77
2018-10-11T03:40:36.186Z,47.17
2018-10-11T03:43:04.299Z,45.77
2018-10-11T03:45:32.434Z,45.23
2018-10-11T03:48:00.707Z,48.57
2018-10-11T03:50:28.907Z,47.33
2018-10-11T03:52:57.980Z,52.80
2018-10-11T03:55:26.276Z,50.73
2018-10-11T03:57:54.394Z,63.67
2018-10-11T04:00:22.506Z,63.50
2018-10-11T04:02:50.638Z,56.17
2018-10-11T04:05:18.813Z,59.50
2018-10-11T04:07:46.945Z,56.03
2018-10-11T04:10:15.016Z,51.83
2018-10-11T04:12:43.103Z,66.63
2018-10-11T04:15:11.311Z,72.50
2018-10-11T04:17:39.389Z,69.73
2018-10-11T04:20:07.460Z,74.97
2018-10-11T04:22:35.536Z,68.63
2018-10-11T04:25:03.602Z,64.97
2018-10-11T04:27:31.678Z,57.03
2018-10-11T04:29:59.870Z,59.43
2018-10-11T04:32:27.924Z,56.63
2018-10-11T04:34:55.995Z,57.53
2018-10-11T04:37:24.079Z,65.30
2018-10-11T04:39:52.185Z,65.77
2018-10-11T04:42:20.283Z,62.33
2018-10-11T04:44:48.354Z,60.97
2018-10-11T04:47:16.515Z,63.97
2018-10-11T04:49:44.590Z,62.13
2018-10-11T04:52:12.670Z,58.77
2018-10-11T04:54:40.743Z,59.30
2018-10-11T04:57:08.912Z,53.33
2018-10-11T04:59:37.008Z,58.63
2018-10-11T05:02:05.063Z,64.47
2018-10-11T05:04:33.134Z,59.40
2018-10-11T05:07:01.294Z,57.00
2018-10-11T05:09:29.393Z,57.37
2018-10-11T05:11:57.475Z,59.40
2018-10-11T05:14:25.563Z,55.53
2018-10-11T05:16:53.640Z,51.03
2018-10-11T05:19:21.735Z,44.57
2018-10-11T05:21:49.822Z,47.23
2018-10-11T05:24:17.918Z,50.47
2018-10-11T05:26:46.000Z,56.10
2018-10-11T05:29:14.162Z,60.50
2018-10-11T05:31:42.252Z,55.70
2018-10-11T05:34:10.353Z,54.50
2018-10-11T05:36:38.608Z,54.70
2018-10-11T05:39:07.756Z,67.90
2018-10-11T05:41:36.088Z,65.10
2018-10-11T05:44:04.225Z,58.57
2018-10-11T05:46:33.428Z,57.43
2018-10-11T05:49:02.794Z,54.30
2018-10-11T05:51:31.567Z,62.70
2018-10-11T05:54:00.469Z,58.83
2018-10-11T05:56:30.103Z,57.03
2018-10-11T05:58:58.972Z,63.80
2018-10-11T06:01:27.068Z,64.27
2018-10-11T06:03:56.030Z,61.80
2018-10-11T06:06:24.126Z,67.00
2018-10-11T06:08:53.004Z,70.60
2018-10-11T06:11:21.067Z,62.90
2018-10-11T06:13:49.148Z,67.20
2018-10-11T06:16:17.219Z,52.40
2018-10-11T06:18:45.796Z,58.87
2018-10-11T06:21:14.216Z,58.33
2018-10-11T06:23:42.452Z,46.30
2018-10-11T06:26:10.834Z,45.43
2018-10-11T06:28:38.943Z,52.07
2018-10-11T06:31:07.035Z,50.83
2018-10-11T06:33:35.143Z,52.50
2018-10-11T06:36:03.316Z,55.53
2018-10-11T06:38:31.471Z,47.03
2018-10-11T06:40:59.583Z,46.27
2018-10-11T06:43:27.691Z,47.50
2018-10-11T06:45:55.837Z,43.57
2018-10-11T06:48:23.910Z,48.00
2018-10-11T06:50:51.989Z,43.00
2018-10-11T06:53:20.070Z,46.00
2018-10-11T06:55:48.205Z,41.50
2018-10-11T06:58:16.223Z,42.37
2018-10-11T07:00:44.560Z,49.47
2018-10-11T07:03:12.579Z,49.63
2018-10-11T07:05:40.683Z,50.13
2018-10-11T07:08:08.912Z,62.50
2018-10-11T07:10:37.007Z,55.13
2018-10-11T07:13:05.193Z,46.80
2018-10-11T07:15:33.288Z,45.83
2018-10-11T07:18:01.375Z,39.27
2018-10-11T07:20:29.470Z,36.77
2018-10-11T07:22:57.547Z,41.27
2018-10-11T07:25:25.675Z,43.13
2018-10-11T07:27:53.719Z,42.10
2018-10-11T07:30:21.814Z,35.50
2018-10-11T07:32:49.901Z,35.27
2018-10-11T07:35:18.111Z,40.00
2018-10-11T07:37:46.085Z,37.57
2018-10-11T07:40:14.188Z,31.60
2018-10-11T07:42:42.260Z,34.97
2018-10-11T07:45:10.607Z,35.83
2018-10-11T07:47:38.702Z,34.53
2018-10-11T07:50:07.218Z,33.20
2018-10-11T07:52:35.315Z,31.67
2018-10-11T07:55:03.401Z,34.37
2018-10-11T07:57:31.495Z,32.97
2018-10-11T07:59:59.579Z,32.53
2018-10-11T08:02:27.675Z,33.47
2018-10-11T08:04:55.768Z,32.00
2018-10-11T08:07:23.993Z,32.77
2018-10-11T08:09:52.121Z,39.63
2018-10-11T08:12:20.214Z,31.03
2018-10-11T08:14:48.300Z,33.27
2018-10-11T08:17:16.737Z,29.87
2018-10-11T08:19:44.545Z,32.03
2018-10-11T08:22:12.563Z,27.57
2018-10-11T08:24:40.804Z,28.30
2018-10-11T08:27:08.782Z,33.47
2018-10-11T08:29:36.866Z,27.50
2018-10-11T08:32:04.992Z,31.50
2018-10-11T08:34:33.043Z,30.60
2018-10-11T08:37:01.135Z,30.53
2018-10-11T08:39:29.212Z,29.07
2018-10-11T08:41:57.316Z,28.80
2018-10-11T08:44:25.407Z,32.83
2018-10-11T08:46:53.587Z,28.00
2018-10-11T08:49:21.665Z,29.03
2018-10-11T08:51:49.743Z,24.13
2018-10-11T08:54:23.160Z,24.73
2018-10-11T08:56:51.441Z,27.83
2018-10-11T08:59:19.618Z,31.27
2018-10-11T09:01:47.714Z,29.63
2018-10-11T09:04:15.904Z,26.00
2018-10-11T09:06:43.919Z,22.70
2018-10-11T09:09:12.020Z,23.00
2018-10-11T09:11:40.093Z,26.50
2018-10-11T09:14:08.928Z,24.23
2018-10-11T09:16:36.996Z,23.23
2018-10-11T09:19:05.095Z,27.27
2018-10-11T09:21:33.293Z,26.23
2018-10-11T09:24:01.384Z,28.53
2018-10-11T09:26:29.456Z,24.13
2018-10-11T09:28:57.559Z,24.53
2018-10-11T09:31:25.759Z,23.33
2018-10-11T09:33:53.906Z,23.47
2018-10-11T09:36:22.092Z,24.00
2018-10-11T09:38:50.736Z,23.47
2018-10-11T09:41:18.859Z,23.87
2018-10-11T09:43:46.957Z,27.87
2018-10-11T09:46:15.244Z,25.83
2018-10-11T09:48:43.583Z,23.70
2018-10-11T09:51:12.320Z,21.57
2018-10-11T09:53:40.792Z,21.63
2018-10-11T09:56:08.875Z,25.77
2018-10-11T09:58:36.985Z,26.13
2018-10-11T10:01:10.394Z,23.07
2018-10-11T10:03:38.477Z,25.67
2018-10-11T10:06:06.574Z,27.80
2018-10-11T10:08:34.655Z,21.13
2018-10-11T10:11:02.757Z,21.50
2018-10-11T10:13:30.827Z,21.20
2018-10-11T10:15:58.929Z,25.03
2018-10-11T10:18:27.004Z,24.43
2018-10-11T10:20:55.099Z,26.67
2018-10-11T10:23:23.164Z,25.87
2018-10-11T10:25:51.238Z,24.17
2018-10-11T10:28:19.308Z,22.13
2018-10-11T10:30:49.287Z,25.23
2018-10-11T10:33:17.490Z,26.83
2018-10-11T10:35:45.583Z,22.67
2018-10-11T10:38:13.655Z,26.00
2018-10-11T10:40:41.764Z,22.10
2018-10-11T10:43:10.195Z,23.20
2018-10-11T10:45:38.277Z,29.17
2018-10-11T10:48:06.351Z,20.40
2018-10-11T10:50:34.438Z,20.97
2018-10-11T10:53:02.727Z,21.37
2018-10-11T10:55:30.822Z,22.67
2018-10-11T10:57:58.907Z,19.80
2018-10-11T11:00:26.982Z,23.30
2018-10-11T11:02:55.068Z,22.23
2018-10-11T11:05:23.146Z,22.93
2018-10-11T11:07:51.280Z,22.67
2018-10-11T11:10:19.330Z,23.30
2018-10-11T11:12:47.420Z,21.07
2018-10-11T11:15:15.526Z,25.47
2018-10-11T11:17:43.618Z,24.17
2018-10-11T11:20:11.729Z,21.30
2018-10-11T11:22:39.825Z,22.63
2018-10-11T11:25:07.971Z,21.80
2018-10-11T11:27:36.015Z,22.27
2018-10-11T11:30:04.145Z,22.30
2018-10-11T11:32:32.237Z,20.67
2018-10-11T11:35:00.323Z,23.50
2018-10-11T11:37:28.431Z,21.57
2018-10-11T11:39:56.567Z,21.70
2018-10-11T11:42:24.642Z,25.47
2018-10-11T11:44:52.738Z,23.53
2018-10-11T11:47:20.828Z,27.93
2018-10-11T11:49:48.919Z,30.00
2018-10-11T11:52:17.012Z,28.90
2018-10-11T11:54:45.104Z,24.37
2018-10-11T11:57:13.188Z,28.50
2018-10-11T11:59:41.281Z,24.87
2018-10-11T12:02:09.419Z,24.60
2018-10-11T12:04:37.462Z,22.60
2018-10-11T12:07:05.572Z,19.37
2018-10-11T12:09:33.668Z,18.63
2018-10-11T12:12:01.756Z,20.00
2018-10-11T12:14:29.926Z,20.40
2018-10-11T12:16:58.008Z,19.67
2018-10-11T12:19:26.108Z,19.63
2018-10-11T12:21:54.225Z,22.40
2018-10-11T12:24:22.317Z,26.87
2018-10-11T12:26:50.402Z,17.77
2018-10-11T12:29:18.505Z,19.63
2018-10-11T12:31:46.583Z,19.97
2018-10-11T12:34:14.667Z,18.13
2018-10-11T12:36:42.768Z,16.63
2018-10-11T12:39:10.854Z,16.57
2018-10-11T12:41:38.953Z,15.93
2018-10-11T12:44:07.037Z,15.23
2018-10-11T12:46:35.371Z,17.60
2018-10-11T12:49:03.217Z,20.97
2018-10-11T12:51:31.450Z,17.73
2018-10-11T12:53:59.494Z,18.70
2018-10-11T12:56:27.664Z,15.57
2018-10-11T12:58:55.701Z,20.50
2018-10-11T13:01:24.258Z,16.27
2018-10-11T13:03:51.883Z,18.87
2018-10-11T13:06:19.986Z,18.27
2018-10-11T13:08:48.080Z,22.13
2018-10-11T13:11:16.189Z,15.57
2018-10-11T13:13:47.862Z,17.87
2018-10-11T13:16:12.371Z,15.40
2018-10-11T13:18:40.547Z,18.60
2018-10-11T13:21:08.715Z,18.73
2018-10-11T13:23:36.799Z,21.30
2018-10-11T13:26:04.901Z,16.87
2018-10-11T13:28:32.978Z,13.73
2018-10-11T13:31:01.072Z,18.87
2018-10-11T13:33:29.170Z,18.33
2018-10-11T13:35:57.244Z,17.60
2018-10-11T13:38:25.427Z,14.83
2018-10-11T13:40:56.894Z,18.57
2018-10-11T13:43:21.645Z,16.43
2018-10-11T13:45:52.471Z,15.37
2018-10-11T13:48:18.128Z,16.23
2018-10-11T13:50:46.886Z,15.77
2018-10-11T13:53:19.456Z,18.67
2018-10-11T13:55:48.706Z,17.23
2018-10-11T13:58:11.181Z,23.00
2018-10-11T14:00:39.263Z,17.30
2018-10-11T14:03:07.593Z,36.97
2018-10-11T14:05:35.687Z,16.93
2018-10-11T14:08:03.786Z,16.53
2018-10-11T14:10:31.924Z,20.93
2018-10-11T14:12:59.967Z,19.80
2018-10-11T14:15:28.046Z,15.27
2018-10-11T14:17:58.680Z,19.00
2018-10-11T14:20:24.495Z,15.57
2018-10-11T14:22:52.582Z,17.37
2018-10-11T14:25:20.708Z,14.23
2018-10-11T14:27:48.805Z,15.93
2018-10-11T14:30:16.884Z,16.07
2018-10-11T14:32:45.028Z,16.20
2018-10-11T14:35:13.321Z,15.93
2018-10-11T14:37:41.498Z,25.07
2018-10-11T14:40:09.652Z,27.27
2018-10-11T14:42:37.731Z,35.03
2018-10-11T14:45:06.302Z,28.13
2018-10-11T14:47:34.479Z,29.90
2018-10-11T14:50:02.571Z,30.80
2018-10-11T14:52:30.656Z,16.87
2018-10-11T14:54:58.813Z,19.13
2018-10-11T14:57:27.029Z,15.47
2018-10-11T14:59:55.066Z,16.60
2018-10-11T15:02:23.155Z,17.50
2018-10-11T15:04:51.242Z,13.47
2018-10-11T15:07:19.323Z,15.80
2018-10-11T15:09:47.409Z,19.37
2018-10-11T15:12:15.474Z,18.50
2018-10-11T15:14:43.623Z,21.33
2018-10-11T15:17:11.697Z,24.73
2018-10-11T15:19:39.810Z,19.20
2018-10-11T15:22:07.886Z,29.53
2018-10-11T15:24:36.171Z,15.57
2018-10-11T15:27:04.401Z,14.50
2018-10-11T15:29:32.593Z,15.67
2018-10-11T15:32:00.688Z,20.77
2018-10-11T15:34:28.767Z,23.83
2018-10-11T15:36:56.939Z,17.40
2018-10-11T15:39:25.024Z,14.33
2018-10-11T15:41:53.094Z,15.93
2018-10-11T15:44:21.171Z,17.13
2018-10-11T15:46:49.413Z,15.43
2018-10-11T15:49:17.457Z,18.37
2018-10-11T15:51:45.529Z,18.47
2018-10-11T15:54:13.607Z,19.10
2018-10-11T15:56:41.724Z,14.67
2018-10-11T15:59:09.791Z,20.07
2018-10-11T16:01:37.982Z,18.53
2018-10-11T16:04:06.050Z,17.40
2018-10-11T16:06:34.133Z,16.47
2018-10-11T16:09:02.312Z,18.93
2018-10-11T16:11:30.460Z,16.23
2018-10-11T16:13:58.539Z,24.03
2018-10-11T16:16:26.618Z,21.20
2018-10-11T16:18:54.696Z,16.30
2018-10-11T16:21:22.794Z,17.40
2018-10-11T16:23:50.876Z,19.70
2018-10-11T16:26:18.962Z,20.20
2018-10-11T16:28:47.036Z,22.30
2018-10-11T16:31:15.121Z,20.07
2018-10-11T16:33:43.243Z,21.73
2018-10-11T16:36:11.321Z,17.50
2018-10-11T16:38:39.392Z,28.87
2018-10-11T16:41:07.475Z,19.50
2018-10-11T16:43:35.543Z,21.20
2018-10-11T16:46:03.615Z,23.37
2018-10-11T16:48:31.706Z,22.83
2018-10-11T16:50:59.774Z,21.37
2018-10-11T16:53:27.855Z,28.33
2018-10-11T16:55:55.956Z,21.33
2018-10-11T16:58:24.047Z,23.47
2018-10-11T17:00:52.175Z,24.07
2018-10-11T17:03:20.567Z,19.87
2018-10-11T17:05:48.705Z,21.63
2018-10-11T17:08:16.813Z,19.07
2018-10-11T17:10:44.976Z,16.53
2018-10-11T17:13:13.074Z,20.73
2018-10-11T17:15:41.159Z,18.77
2018-10-11T17:18:09.262Z,22.80
2018-10-11T17:20:37.356Z,21.97
2018-10-11T17:23:05.668Z,22.17
2018-10-11T17:25:33.755Z,20.07
2018-10-11T17:28:01.874Z,21.10
2018-10-11T17:30:29.976Z,20.07
2018-10-11T17:32:58.060Z,25.03
2018-10-11T17:35:26.429Z,26.10
2018-10-11T17:37:54.588Z,21.53
2018-10-11T17:40:22.873Z,27.20
2018-10-11T17:42:51.023Z,23.97
2018-10-11T17:45:19.111Z,30.17
2018-10-11T17:47:47.196Z,34.47
2018-10-11T17:50:15.354Z,30.07
2018-10-11T17:52:43.416Z,28.77
2018-10-11T17:55:11.518Z,30.60
2018-10-11T17:57:39.605Z,22.33
2018-10-11T18:00:07.905Z,28.43
2018-10-11T18:02:35.990Z,27.50
2018-10-11T18:05:04.180Z,25.93
2018-10-11T18:07:32.279Z,24.67
2018-10-11T18:10:00.405Z,28.27
2018-10-11T18:12:28.445Z,19.43
2018-10-11T18:14:56.555Z,25.23
2018-10-11T18:17:24.623Z,23.50
2018-10-11T18:19:52.727Z,25.07
2018-10-11T18:22:20.771Z,32.30
2018-10-11T18:24:48.859Z,43.37
2018-10-11T18:27:17.859Z,29.33
2018-10-11T18:29:45.936Z,32.20
2018-10-11T18:32:14.008Z,23.73
2018-10-11T18:34:42.092Z,25.70
2018-10-11T18:37:10.170Z,24.77
2018-10-11T18:39:38.250Z,27.73
2018-10-11T18:42:06.320Z,19.40
2018-10-11T18:44:34.466Z,22.77
2018-10-11T18:47:02.478Z,24.00
2018-10-11T18:49:30.560Z,21.97
2018-10-11T18:51:58.656Z,19.03
2018-10-11T18:54:26.728Z,27.63
2018-10-11T18:56:54.810Z,21.00
2018-10-11T18:59:22.875Z,20.20
2018-10-11T19:01:50.959Z,23.63
2018-10-11T19:04:19.031Z,21.67
2018-10-11T19:06:47.128Z,22.20
2018-10-11T19:09:15.265Z,28.57
2018-10-11T19:11:43.344Z,28.67
2018-10-11T19:14:11.488Z,26.57
2018-10-11T19:16:39.565Z,28.33
2018-10-11T19:19:07.644Z,25.07
2018-10-11T19:21:35.743Z,32.33
2018-10-11T19:24:03.811Z,30.40
2018-10-11T19:26:31.888Z,25.60
2018-10-11T19:28:59.955Z,26.03
2018-10-11T19:31:28.042Z,25.33
2018-10-11T19:33:56.115Z,30.17
2018-10-11T19:36:24.326Z,25.20
2018-10-11T19:38:52.407Z,26.17
2018-10-11T19:41:20.493Z,23.47
2018-10-11T19:43:48.591Z,30.17
2018-10-11T19:46:16.674Z,30.07
2018-10-11T19:48:44.743Z,26.83
2018-10-11T19:51:12.842Z,31.70
2018-10-11T19:53:40.917Z,26.87
2018-10-11T19:56:09.026Z,23.73
2018-10-11T19:58:37.073Z,28.20
2018-10-11T20:01:05.198Z,30.60
2018-10-11T20:03:33.275Z,31.07
2018-10-11T20:06:01.392Z,27.90
2018-10-11T20:08:29.585Z,23.83
2018-10-11T20:10:57.674Z,26.67
2018-10-11T20:13:25.795Z,24.27
2018-10-11T20:15:53.998Z,23.27
2018-10-11T20:18:22.120Z,21.67
2018-10-11T20:20:50.190Z,23.80
2018-10-11T20:23:18.291Z,19.27
2018-10-11T20:25:46.397Z,20.80
2018-10-11T20:28:14.480Z,28.33
2018-10-11T20:30:42.510Z,25.30
2018-10-11T20:33:10.691Z,22.97
2018-10-11T20:35:38.831Z,26.40
2018-10-11T20:38:07.014Z,21.33
2018-10-11T20:40:35.081Z,27.37
2018-10-11T20:43:03.160Z,22.47
2018-10-11T20:45:31.329Z,25.10
2018-10-11T20:47:59.435Z,25.27
2018-10-11T20:50:27.590Z,22.23
2018-10-11T20:52:55.943Z,24.10
2018-10-11T20:55:24.012Z,20.87
2018-10-11T20:57:52.099Z,25.30
2018-10-11T21:00:20.198Z,28.93
2018-10-11T21:02:48.276Z,31.70
2018-10-11T21:05:16.424Z,23.70
2018-10-11T21:07:44.569Z,24.83
2018-10-11T21:10:12.684Z,22.10
2018-10-11T21:12:40.781Z,24.97
2018-10-11T21:15:08.880Z,26.43
2018-10-11T21:17:36.979Z,24.97
2018-10-11T21:20:05.253Z,22.57
2018-10-11T21:22:33.255Z,24.47
2018-10-11T21:25:01.371Z,22.43
2018-10-11T21:27:29.470Z,20.43
2018-10-11T21:29:57.560Z,22.07
2018-10-11T21:32:25.797Z,21.97
2018-10-11T21:34:53.960Z,20.57
2018-10-11T21:37:22.258Z,25.37
2018-10-11T21:39:50.351Z,27.73
2018-10-11T21:42:18.433Z,22.43
2018-10-11T21:44:46.528Z,24.57
2018-10-11T21:47:14.613Z,28.33
2018-10-11T21:49:42.772Z,26.53
2018-10-11T21:52:11.378Z,23.23
2018-10-11T21:54:39.772Z,24.70
2018-10-11T21:57:07.851Z,21.47
2018-10-11T21:59:35.985Z,22.30
2018-10-11T22:02:04.075Z,20.87
2018-10-11T22:04:32.186Z,24.53
2018-10-11T22:07:00.278Z,21.50
2018-10-11T22:09:28.366Z,26.37
2018-10-11T22:11:56.462Z,22.70
2018-10-11T22:14:24.804Z,25.37
2018-10-11T22:16:52.843Z,25.07
2018-10-11T22:19:20.931Z,26.43
2018-10-11T22:21:49.026Z,25.87
2018-10-11T22:24:17.201Z,25.70
2018-10-11T22:26:45.291Z,21.97
2018-10-11T22:29:13.370Z,23.63
2018-10-11T22:31:41.467Z,21.67
2018-10-11T22:34:09.566Z,23.77
2018-10-11T22:36:37.669Z,23.80
2018-10-11T22:39:08.206Z,23.93
2018-10-11T22:41:36.740Z,25.43
2018-10-11T22:44:04.838Z,29.03
2018-10-11T22:46:32.944Z,27.83
2018-10-11T22:49:01.037Z,27.73
2018-10-11T22:51:29.186Z,23.73
2018-10-11T22:53:57.270Z,26.50
2018-10-11T22:56:25.358Z,24.37
2018-10-11T22:58:53.943Z,25.33
2018-10-11T23:01:22.351Z,24.80
2018-10-11T23:03:50.436Z,35.77
2018-10-11T23:06:18.521Z,36.07
2018-10-11T23:08:46.621Z,33.57
2018-10-11T23:11:14.715Z,29.07
2018-10-11T23:13:42.811Z,28.60
2018-10-11T23:16:11.480Z,26.43
2018-10-11T23:18:40.483Z,27.43
2018-10-11T23:21:08.567Z,22.53
2018-10-11T23:23:36.661Z,25.03
2018-10-11T23:26:04.787Z,25.47
2018-10-11T23:28:32.876Z,20.50
2018-10-11T23:31:00.963Z,22.93
2018-10-11T23:33:29.064Z,26.73
2018-10-11T23:35:57.143Z,23.70
2018-10-11T23:38:25.235Z,28.00
2018-10-11T23:40:53.492Z,22.50
2018-10-11T23:43:21.590Z,24.50
2018-10-11T23:45:49.680Z,25.23
2018-10-11T23:48:17.768Z,21.60
2018-10-11T23:50:45.835Z,21.40
2018-10-11T23:53:13.926Z,23.20
2018-10-11T23:55:41.996Z,28.30
2018-10-11T23:58:10.073Z,32.37
